Time;durP1;ratioP1;P1;durP2;ratioP2;P2;SDS_P1;SDS_P2;PMS_P1;PMS_P2;Temp;Humidity;BMP_temperature;BMP_pressure;BME280_temperature;BME280_humidity;BME280_pressure;Samples;Min_cycle;Max_cycle;Signal;HPM_P1;HPM_P2
2022/12/11 00:02:12;;;;;;;31.67;12.90;;;;;;;-145.69;100.00;52783.06;5093731;28;20225;-79
2022/12/11 00:04:40;;;;;;;26.53;11.90;;;;;;;-145.69;100.00;52769.19;5093753;28;20206;-80
2022/12/11 00:07:06;;;;;;;28.03;12.67;;;;;;;-145.69;100.00;52767.19;5092964;28;20198;-79
2022/12/11 00:09:33;;;;;;;32.77;11.47;;;;;;;-145.69;100.00;52796.91;5093249;28;20190;-79
2022/12/11 00:12:01;;;;;;;24.07;10.90;;;;;;;-145.69;100.00;52792.94;5092174;28;20565;-79
2022/12/11 00:14:28;;;;;;;23.30;10.03;;;;;;;-145.69;100.00;52759.28;5093580;28;20202;-80
2022/12/11 00:16:55;;;;;;;20.87;9.63;;;;;;;-145.69;100.00;52755.31;5093560;28;20203;-80
2022/12/11 00:19:21;;;;;;;20.50;10.13;;;;;;;-145.69;100.00;52816.72;5093047;28;20194;-79
2022/12/11 00:21:49;;;;;;;24.07;10.30;;;;;;;-145.69;100.00;52747.41;5093172;28;20248;-79
2022/12/11 00:24:15;;;;;;;23.87;10.27;;;;;;;-145.69;100.00;52769.19;5093033;28;20198;-80
2022/12/11 00:26:42;;;;;;;25.77;10.37;;;;;;;-145.69;100.00;52790.97;5093173;28;20209;-79
2022/12/11 00:29:13;;;;;;;22.80;10.47;;;;;;;-145.69;100.00;52832.56;5093414;28;20198;-80
2022/12/11 00:31:40;;;;;;;22.53;10.77;;;;;;;-145.69;100.00;52769.19;5093317;28;20197;-80
2022/12/11 00:34:06;;;;;;;25.07;10.73;;;;;;;-145.69;100.00;52771.16;5093159;28;20645;-79
2022/12/11 00:36:33;;;;;;;25.63;11.57;;;;;;;-145.69;100.00;52785.03;5093005;28;20240;-80
2022/12/11 00:39:01;;;;;;;23.77;10.30;;;;;;;-145.69;100.00;52785.03;5091518;28;20281;-78
2022/12/11 00:41:28;;;;;;;25.27;10.93;;;;;;;-145.69;100.00;52773.16;5092293;28;20225;-79
2022/12/11 00:43:54;;;;;;;28.40;11.60;;;;;;;-145.69;100.00;52818.69;5093216;28;20211;-80
2022/12/11 00:46:21;;;;;;;25.27;10.73;;;;;;;-145.69;100.00;52753.34;5092862;28;20653;-80
2022/12/11 00:48:48;;;;;;;25.03;11.50;;;;;;;-145.69;100.00;52757.31;5092860;28;20595;-80
2022/12/11 00:51:15;;;;;;;30.40;12.60;;;;;;;-145.69;100.00;52800.88;5092900;28;20206;-80
2022/12/11 00:53:41;;;;;;;26.17;11.67;;;;;;;-145.69;100.00;52771.16;5092875;28;20557;-80
2022/12/11 00:56:15;;;;;;;25.53;11.30;;;;;;;-145.69;100.00;52759.28;5093021;28;20211;-79
2022/12/11 00:58:42;;;;;;;30.20;11.63;;;;;;;-145.69;100.00;52792.94;5092927;28;20201;-80
2022/12/11 01:01:09;;;;;;;24.47;10.20;;;;;;;-145.69;100.00;52792.94;5092773;28;20233;-80
2022/12/11 01:03:36;;;;;;;28.53;12.07;;;;;;;-145.69;100.00;52804.84;5092838;28;20672;-79
2022/12/11 01:06:04;;;;;;;34.07;13.47;;;;;;;-145.69;100.00;52781.06;5092045;28;20552;-79
2022/12/11 01:08:31;;;;;;;32.60;13.37;;;;;;;-145.69;100.00;52783.06;5092889;28;20198;-80
2022/12/11 01:11:10;;;;;;;29.47;12.53;;;;;;;-145.69;100.00;52787.00;5091806;28;20194;-79
2022/12/11 01:13:39;;;;;;;35.33;14.60;;;;;;;-145.69;100.00;52769.19;5080901;28;20581;-79
2022/12/11 01:16:07;;;;;;;32.30;13.57;;;;;;;-145.69;100.00;52775.13;5090250;28;20201;-80
2022/12/11 01:18:36;;;;;;;32.40;14.77;;;;;;;-145.69;100.00;52818.69;5092417;28;20782;-80
2022/12/11 01:21:06;;;;;;;42.60;15.40;;;;;;;-145.69;100.00;52804.84;5092873;28;20253;-79
2022/12/11 01:23:33;;;;;;;34.47;13.73;;;;;;;-145.69;100.00;52798.91;5096435;28;20187;-80
2022/12/11 01:26:05;;;;;;;32.03;13.43;;;;;;;-145.69;100.00;52765.22;5096878;28;20202;-80
2022/12/11 01:28:31;;;;;;;33.93;14.20;;;;;;;-145.69;100.00;52787.00;5096412;28;20198;-80
2022/12/11 01:30:59;;;;;;;32.97;13.37;;;;;;;-145.69;100.00;52753.34;5096607;28;20202;-79
2022/12/11 01:33:26;;;;;;;40.60;16.10;;;;;;;-145.69;100.00;52792.94;5096044;28;20434;-80
2022/12/11 01:35:52;;;;;;;35.67;14.00;;;;;;;-145.69;100.00;52804.84;5096400;28;20236;-81
2022/12/11 01:38:19;;;;;;;39.60;14.23;;;;;;;-145.69;100.00;52796.91;5096345;28;20202;-80
2022/12/11 01:40:47;;;;;;;39.83;14.90;;;;;;;-145.69;100.00;52796.91;5095911;28;20584;-79
2022/12/11 01:43:13;;;;;;;33.67;13.00;;;;;;;-145.69;100.00;52828.59;5096146;28;20193;-80
2022/12/11 01:45:43;;;;;;;35.33;14.03;;;;;;;-145.69;100.00;52765.22;5096122;28;20194;-78
2022/12/11 01:48:14;;;;;;;32.57;13.33;;;;;;;-145.69;100.00;52785.03;5096186;28;20198;-80
2022/12/11 01:50:45;;;;;;;33.30;13.50;;;;;;;-145.69;100.00;52781.06;5096349;28;20251;-79
2022/12/11 01:53:16;;;;;;;33.60;13.20;;;;;;;-145.69;100.00;52810.78;5095592;28;20277;-79
2022/12/11 01:55:43;;;;;;;33.77;13.63;;;;;;;-145.69;100.00;52796.91;5095952;28;20202;-80
2022/12/11 01:58:12;;;;;;;35.10;13.53;;;;;;;-145.69;100.00;52775.13;5095567;28;20194;-79
2022/12/11 02:00:39;;;;;;;34.13;13.77;;;;;;;-145.69;100.00;52789.00;5095759;28;20212;-80
2022/12/11 02:03:05;;;;;;;36.33;13.50;;;;;;;-145.69;100.00;52769.19;5096104;28;20281;-79
2022/12/11 02:05:33;;;;;;;37.60;14.43;;;;;;;-145.69;100.00;52796.91;5095986;28;20657;-80
2022/12/11 02:08:02;;;;;;;32.50;12.87;;;;;;;-145.69;100.00;52790.97;5095576;28;20652;-80
2022/12/11 02:10:41;;;;;;;36.10;14.27;;;;;;;-145.69;100.00;52765.22;5095407;28;20206;-80
2022/12/11 02:13:14;;;;;;;32.33;13.27;;;;;;;-145.69;100.00;52769.19;5095510;28;20190;-79
2022/12/11 02:15:48;;;;;;;34.17;13.03;;;;;;;-145.69;100.00;52796.91;5095443;28;20202;-79
2022/12/11 02:18:20;;;;;;;30.97;12.33;;;;;;;-145.69;100.00;52759.28;5095499;28;20545;-79
2022/12/11 02:20:57;;;;;;;29.77;12.10;;;;;;;-145.69;100.00;52783.06;5095626;28;20229;-80
2022/12/11 02:24:01;;;;;;;26.03;11.37;;;;;;;-145.69;100.00;52745.41;5095105;28;20194;-79
2022/12/11 02:26:50;;;;;;;26.57;11.07;;;;;;;-145.69;100.00;52810.78;5094979;28;20198;-79
2022/12/11 02:29:22;;;;;;;35.93;12.67;;;;;;;-145.69;100.00;52783.06;5095382;28;20209;-79
2022/12/11 02:31:56;;;;;;;28.50;13.10;;;;;;;-145.69;100.00;52773.16;5095409;28;20209;-80
2022/12/11 02:34:28;;;;;;;32.83;13.43;;;;;;;-145.69;100.00;52796.91;5094028;28;20661;-80
2022/12/11 02:36:59;;;;;;;33.27;12.60;;;;;;;-145.69;100.00;52792.94;5095129;28;20209;-80
2022/12/11 02:39:27;;;;;;;32.63;10.77;;;;;;;-145.69;100.00;52806.81;5093607;28;20204;-80
2022/12/11 02:41:55;;;;;;;30.23;12.90;;;;;;;-145.69;100.00;52775.13;5095017;28;20229;-80
2022/12/11 02:44:27;;;;;;;29.60;12.20;;;;;;;-145.69;100.00;52781.06;5095250;28;20205;-79
2022/12/11 02:46:54;;;;;;;27.13;12.40;;;;;;;-145.69;100.00;52781.06;5095108;28;20289;-80
2022/12/11 02:49:24;;;;;;;30.23;12.77;;;;;;;-145.69;100.00;52789.00;5094747;28;20198;-80
2022/12/11 02:51:52;;;;;;;24.97;11.13;;;;;;;-145.69;100.00;52753.34;5095041;28;20283;-80
2022/12/11 02:54:24;;;;;;;26.87;11.70;;;;;;;-145.69;100.00;52802.84;5094664;28;20189;-80
2022/12/11 02:56:55;;;;;;;29.23;11.90;;;;;;;-145.69;100.00;52796.91;5095152;28;20198;-80
2022/12/11 02:59:29;;;;;;;27.10;10.70;;;;;;;-145.69;100.00;52814.75;5095070;28;20209;-79
2022/12/11 03:01:56;;;;;;;28.13;12.77;;;;;;;-145.69;100.00;52765.22;5094393;28;20691;-80
2022/12/11 03:04:23;;;;;;;25.77;11.30;;;;;;;-145.69;100.00;52783.06;5094925;28;20205;-80
2022/12/11 03:06:58;;;;;;;31.67;12.17;;;;;;;-145.69;100.00;52787.00;5094712;28;20198;-79
2022/12/11 03:09:25;;;;;;;25.77;11.17;;;;;;;-145.69;100.00;52753.34;5094481;28;20266;-80
2022/12/11 03:11:52;;;;;;;33.83;12.47;;;;;;;-145.69;100.00;52779.09;5094375;28;20198;-80
2022/12/11 03:14:19;;;;;;;31.13;11.93;;;;;;;-145.69;100.00;52773.16;5079428;28;20209;-79
2022/12/11 03:16:55;;;;;;;33.83;12.97;;;;;;;-145.69;100.00;52796.91;5087669;28;20198;-79
2022/12/11 03:19:27;;;;;;;29.63;11.60;;;;;;;-145.69;100.00;52779.09;5094277;28;20197;-78
2022/12/11 03:22:00;;;;;;;27.17;11.53;;;;;;;-145.69;100.00;52812.75;5094390;28;20336;-78
2022/12/11 03:24:30;;;;;;;32.80;12.57;;;;;;;-145.69;100.00;52798.91;5094211;28;20193;-78
2022/12/11 03:27:00;;;;;;;28.53;11.80;;;;;;;-145.69;100.00;52792.94;5094572;28;20206;-79
2022/12/11 03:29:33;;;;;;;25.73;11.40;;;;;;;-145.69;100.00;52765.22;5093796;28;20205;-79
2022/12/11 03:32:08;;;;;;;27.43;11.60;;;;;;;-145.69;100.00;52781.06;5093586;28;20195;-79
2022/12/11 03:34:44;;;;;;;26.83;11.33;;;;;;;-145.69;100.00;52804.84;5094181;28;20205;-79
2022/12/11 03:37:13;;;;;;;30.07;11.83;;;;;;;-145.69;100.00;52804.84;5094064;28;20623;-79
2022/12/11 03:39:46;;;;;;;24.37;10.37;;;;;;;-145.69;100.00;52796.91;5093083;28;20194;-78
2022/12/11 03:42:15;;;;;;;27.40;11.40;;;;;;;-145.69;100.00;52792.94;5093842;28;20245;-78
2022/12/11 03:44:46;;;;;;;28.33;10.17;;;;;;;-145.69;100.00;52804.84;5093770;28;20198;-78
2022/12/11 03:47:17;;;;;;;25.57;9.77;;;;;;;-145.69;100.00;52804.84;5093585;28;20292;-79
2022/12/11 03:49:45;;;;;;;29.33;11.00;;;;;;;-145.69;100.00;52822.66;5093865;28;20653;-79
2022/12/11 03:52:14;;;;;;;25.70;10.33;;;;;;;-145.69;100.00;52830.59;5093810;28;20213;-79
2022/12/11 03:54:42;;;;;;;23.83;9.93;;;;;;;-145.69;100.00;52800.88;5093483;28;20277;-78
2022/12/11 03:57:12;;;;;;;32.87;11.97;;;;;;;-145.69;100.00;52775.13;5093403;28;20213;-79
2022/12/11 03:59:38;;;;;;;28.10;10.87;;;;;;;-145.69;100.00;52812.75;5093824;28;20206;-79
2022/12/11 04:02:09;;;;;;;27.30;11.27;;;;;;;-145.69;100.00;52808.78;5093672;28;20226;-79
2022/12/11 04:04:38;;;;;;;29.10;11.50;;;;;;;-145.69;100.00;52789.00;5093515;28;20198;-80
2022/12/11 04:07:04;;;;;;;29.03;11.87;;;;;;;-145.69;100.00;52816.72;5093994;28;20202;-79
2022/12/11 04:09:31;;;;;;;33.27;13.03;;;;;;;-145.69;100.00;52824.63;5092393;28;20190;-79
2022/12/11 04:11:57;;;;;;;29.50;11.33;;;;;;;-145.69;100.00;52759.28;5093563;28;20201;-79
2022/12/11 04:17:08;;;;;;;39.23;13.10;;;;;;;-145.69;100.00;52796.91;5093456;28;20205;-80
2022/12/11 04:25:06;;;;;;;34.60;12.57;;;;;;;-145.69;100.00;52804.84;5092667;28;20805;-79
2022/12/11 04:27:51;;;;;;;30.10;12.07;;;;;;;-145.69;100.00;52771.16;5093154;28;20199;-79
2022/12/11 04:30:21;;;;;;;30.37;12.17;;;;;;;-145.69;100.00;52773.16;5093175;28;20202;-79
2022/12/11 04:32:48;;;;;;;28.43;11.00;;;;;;;-145.69;100.00;52779.09;5093297;28;20202;-80
2022/12/11 04:35:17;;;;;;;29.27;11.73;;;;;;;-145.69;100.00;52777.09;5092832;28;20336;-79
2022/12/11 04:37:43;;;;;;;26.50;11.07;;;;;;;-145.69;100.00;52804.84;5093213;28;20205;-79
2022/12/11 04:40:12;;;;;;;26.43;10.50;;;;;;;-145.69;100.00;52787.00;5092624;28;20206;-79
2022/12/11 04:42:39;;;;;;;25.23;10.37;;;;;;;-145.69;100.00;52812.75;5092424;28;20692;-79
2022/12/11 04:45:07;;;;;;;27.37;10.77;;;;;;;-145.69;100.00;52785.03;5093007;28;20221;-79
2022/12/11 04:47:34;;;;;;;27.50;9.83;;;;;;;-145.69;100.00;52810.78;5093216;28;20194;-80
2022/12/11 04:50:01;;;;;;;19.80;8.70;;;;;;;-145.69;100.00;52765.22;5092455;28;20194;-79
2022/12/11 04:52:29;;;;;;;25.83;10.10;;;;;;;-145.69;100.00;52785.03;5092949;28;20194;-79
2022/12/11 04:54:55;;;;;;;28.63;9.83;;;;;;;-145.69;100.00;52808.78;5092567;28;20302;-79
2022/12/11 04:57:22;;;;;;;22.27;9.60;;;;;;;-145.69;100.00;52790.97;5096630;28;20193;-79
2022/12/11 04:59:49;;;;;;;23.33;9.60;;;;;;;-145.69;100.00;52789.00;5098989;28;20228;-79
2022/12/11 05:02:16;;;;;;;26.23;10.57;;;;;;;-145.69;100.00;52808.78;5099705;28;20316;-79
2022/12/11 05:04:42;;;;;;;26.03;10.43;;;;;;;-145.69;100.00;52824.63;5099604;28;20209;-79
2022/12/11 05:07:09;;;;;;;22.20;9.77;;;;;;;-145.69;100.00;52804.84;5099170;28;20541;-79
2022/12/11 05:09:37;;;;;;;33.87;11.50;;;;;;;-145.69;100.00;52824.63;5099399;28;20197;-79
2022/12/11 05:12:04;;;;;;;24.60;9.90;;;;;;;-145.69;100.00;52796.91;5099245;28;20202;-79
2022/12/11 05:14:31;;;;;;;28.50;9.63;;;;;;;-145.69;100.00;52814.75;5099506;28;20204;-79
2022/12/11 05:16:57;;;;;;;28.57;10.60;;;;;;;-145.69;100.00;52832.56;5091422;28;20195;-79
2022/12/11 05:19:24;;;;;;;31.70;10.57;;;;;;;-145.69;100.00;52824.63;5079140;28;20665;-79
2022/12/11 05:21:50;;;;;;;29.90;11.00;;;;;;;-145.69;100.00;52812.75;5078817;28;20222;-79
2022/12/11 05:24:17;;;;;;;24.43;10.10;;;;;;;-145.69;100.00;52830.59;5079104;28;20203;-78
2022/12/11 05:26:45;;;;;;;32.80;10.40;;;;;;;-145.69;100.00;52781.06;5078226;28;20198;-78
2022/12/11 05:29:11;;;;;;;23.90;10.03;;;;;;;-145.69;100.00;52814.75;5079237;28;20202;-79
2022/12/11 05:31:38;;;;;;;33.30;11.03;;;;;;;-145.69;100.00;52792.94;5079176;28;20198;-79
2022/12/11 05:34:05;;;;;;;26.70;10.40;;;;;;;-145.69;100.00;52812.75;5078902;28;20194;-78
2022/12/11 05:36:33;;;;;;;28.60;10.67;;;;;;;-145.69;100.00;52826.63;5079226;28;20241;-79
2022/12/11 05:39:01;;;;;;;30.17;9.17;;;;;;;-145.69;100.00;52781.06;5098863;28;20668;-77
2022/12/11 05:41:30;;;;;;;35.50;10.90;;;;;;;-145.69;100.00;52796.91;5098762;28;20198;-79
2022/12/11 05:43:58;;;;;;;24.97;10.27;;;;;;;-145.69;100.00;52792.94;5099342;28;20572;-79
2022/12/11 05:46:28;;;;;;;26.73;9.23;;;;;;;-145.69;100.00;52800.88;5099012;28;20206;-78
2022/12/11 05:48:56;;;;;;;29.87;9.87;;;;;;;-145.69;100.00;52800.88;5099273;28;20197;-79
2022/12/11 05:51:24;;;;;;;31.93;10.17;;;;;;;-145.69;100.00;52790.97;5099011;28;20205;-78
2022/12/11 05:53:52;;;;;;;31.17;10.10;;;;;;;-145.69;100.00;52808.78;5098699;28;20193;-79
2022/12/11 05:56:21;;;;;;;31.00;10.03;;;;;;;-145.69;100.00;52794.94;5098763;28;20205;-78
2022/12/11 05:58:48;;;;;;;35.87;11.27;;;;;;;-145.69;100.00;52798.91;5099114;28;20205;-78
2022/12/11 06:01:18;;;;;;;27.33;10.03;;;;;;;-145.69;100.00;52840.47;5098657;28;20680;-79
2022/12/11 06:03:45;;;;;;;32.00;11.30;;;;;;;-145.69;100.00;52828.59;5098970;28;20230;-79
2022/12/11 06:06:11;;;;;;;30.63;10.27;;;;;;;-145.69;100.00;52824.63;5098706;28;20194;-79
2022/12/11 06:08:38;;;;;;;35.77;10.73;;;;;;;-145.69;100.00;52790.97;5095819;28;20194;-79
2022/12/11 06:11:05;;;;;;;28.83;10.00;;;;;;;-145.69;100.00;52806.81;5095421;28;20579;-78
2022/12/11 06:13:32;;;;;;;20.20;8.87;;;;;;;-145.69;100.00;52804.84;5095470;28;20209;-78
2022/12/11 06:16:01;;;;;;;24.13;8.87;;;;;;;-145.69;100.00;52808.78;5095526;28;20205;-78
2022/12/11 06:18:29;;;;;;;25.77;8.93;;;;;;;-145.69;100.00;52816.72;5095658;28;20255;-78
2022/12/11 06:20:56;;;;;;;27.40;9.70;;;;;;;-145.69;100.00;52840.47;5095409;28;20691;-78
2022/12/11 06:23:22;;;;;;;19.33;8.20;;;;;;;-145.69;100.00;52832.56;5095308;28;20810;-79
2022/12/11 06:25:49;;;;;;;37.17;13.70;;;;;;;-145.69;100.00;52816.72;5094730;28;20494;-79
2022/12/11 06:28:16;;;;;;;25.83;9.53;;;;;;;-145.69;100.00;52832.56;5095349;28;20212;-78
2022/12/11 06:30:43;;;;;;;26.80;9.20;;;;;;;-145.69;100.00;52812.75;5095228;28;20202;-79
2022/12/11 06:33:10;;;;;;;28.63;9.47;;;;;;;-145.69;100.00;52790.97;5095361;28;20237;-78
2022/12/11 06:35:38;;;;;;;25.87;8.80;;;;;;;-145.69;100.00;52864.25;5095389;28;20234;-79
2022/12/11 06:38:04;;;;;;;26.83;9.20;;;;;;;-145.69;100.00;52804.84;5094747;28;20205;-78
2022/12/11 06:40:31;;;;;;;23.97;8.43;;;;;;;-145.69;100.00;52800.88;5094798;28;20213;-78
2022/12/11 06:42:57;;;;;;;28.60;8.40;;;;;;;-145.69;100.00;52832.56;5095155;28;20238;-79
2022/12/11 06:45:24;;;;;;;21.60;8.43;;;;;;;-145.69;100.00;52826.63;5095075;28;20195;-78
2022/12/11 06:47:50;;;;;;;24.93;9.30;;;;;;;-145.69;100.00;52836.53;5094407;28;20197;-78
2022/12/11 06:50:17;;;;;;;24.53;8.57;;;;;;;-145.69;100.00;52826.63;5095096;28;20198;-78
2022/12/11 06:52:45;;;;;;;29.23;9.67;;;;;;;-145.69;100.00;52789.00;5095124;28;20232;-77
2022/12/11 06:55:11;;;;;;;33.10;10.83;;;;;;;-145.69;100.00;52775.13;5094935;28;20289;-78
2022/12/11 06:57:38;;;;;;;29.90;9.90;;;;;;;-145.69;100.00;52826.63;5094457;28;20202;-78
2022/12/11 07:00:05;;;;;;;37.10;10.73;;;;;;;-145.69;100.00;52828.59;5095221;28;20202;-78
2022/12/11 07:02:32;;;;;;;23.90;9.47;;;;;;;-145.69;100.00;52792.94;5094671;28;20206;-78
2022/12/11 07:04:58;;;;;;;22.20;9.00;;;;;;;-145.69;100.00;52777.09;5094858;28;20202;-77
2022/12/11 07:07:25;;;;;;;27.43;9.07;;;;;;;-145.69;100.00;52775.13;5093748;28;20190;-77
2022/12/11 07:09:53;;;;;;;29.20;9.47;;;;;;;-145.69;100.00;52808.78;5094626;28;20650;-78
2022/12/11 07:12:19;;;;;;;23.00;8.60;;;;;;;-145.69;100.00;52844.44;5094160;28;20576;-78
2022/12/11 07:14:46;;;;;;;24.23;9.00;;;;;;;-145.69;100.00;52769.19;5094679;28;20546;-77
2022/12/11 07:17:13;;;;;;;24.50;8.70;;;;;;;-145.69;100.00;52808.78;5092123;28;20205;-78
2022/12/11 07:19:39;;;;;;;27.35;9.80;;;;;;;-145.69;100.00;52820.69;5094063;28;20527;-78
2022/12/11 07:22:07;;;;;;;29.47;9.23;;;;;;;-145.69;100.00;52804.84;5093895;28;20198;-78
2022/12/11 07:24:33;;;;;;;26.40;9.27;;;;;;;-145.69;100.00;52820.69;5094200;28;20201;-78
2022/12/11 07:27:01;;;;;;;31.30;9.90;;;;;;;-145.69;100.00;52836.53;5094408;28;20221;-78
2022/12/11 07:29:28;;;;;;;25.17;8.40;;;;;;;-145.69;100.00;52781.06;5093753;28;20273;-78
2022/12/11 07:31:54;;;;;;;23.13;8.17;;;;;;;-145.69;100.00;52804.84;5093837;28;20205;-78
2022/12/11 07:34:20;;;;;;;25.60;9.03;;;;;;;-145.69;100.00;52792.94;5093899;28;20230;-78
2022/12/11 07:36:47;;;;;;;25.50;9.07;;;;;;;-145.69;100.00;52810.78;5093573;28;20198;-78
2022/12/11 07:39:14;;;;;;;27.03;9.40;;;;;;;-145.69;100.00;52812.75;5093869;28;20194;-77
2022/12/11 07:41:40;;;;;;;26.33;8.83;;;;;;;-145.69;100.00;52828.59;5093856;28;20668;-77
2022/12/11 07:44:08;;;;;;;25.43;9.70;;;;;;;-145.69;100.00;52816.72;5093485;28;20202;-77
2022/12/11 07:46:35;;;;;;;22.93;8.10;;;;;;;-145.69;100.00;52808.78;5094149;28;20201;-78
2022/12/11 07:49:01;;;;;;;23.87;8.83;;;;;;;-145.69;100.00;52792.94;5093863;28;20194;-77
2022/12/11 07:51:30;;;;;;;23.97;8.33;;;;;;;-145.69;100.00;52790.97;5093689;28;20198;-78
2022/12/11 07:53:58;;;;;;;24.03;7.97;;;;;;;-145.69;100.00;52790.97;5093441;28;20747;-77
2022/12/11 07:56:25;;;;;;;20.23;8.13;;;;;;;-145.69;100.00;52802.84;5093641;28;20234;-78
2022/12/11 07:58:52;;;;;;;22.67;8.57;;;;;;;-145.69;100.00;52836.53;5093379;28;20202;-77
2022/12/11 08:01:23;;;;;;;25.07;8.17;;;;;;;-145.69;100.00;52812.75;5093731;28;20194;-77
2022/12/11 08:03:50;;;;;;;25.60;9.20;;;;;;;-145.69;100.00;52798.91;5083641;28;20792;-78
2022/12/11 08:06:17;;;;;;;22.87;8.07;;;;;;;-145.69;100.00;52798.91;5093650;28;20198;-80
2022/12/11 08:08:44;;;;;;;22.43;8.67;;;;;;;-145.69;100.00;52794.94;5093394;28;20202;-80
2022/12/11 08:11:13;;;;;;;24.37;9.10;;;;;;;-145.69;100.00;52800.88;5093324;28;20202;-80
2022/12/11 08:13:41;;;;;;;25.03;9.57;;;;;;;-145.69;100.00;52804.84;5093582;28;20237;-80
2022/12/11 08:16:10;;;;;;;23.47;8.30;;;;;;;-145.69;100.00;52789.00;5093423;28;20197;-79
2022/12/11 08:18:38;;;;;;;24.57;8.60;;;;;;;-145.69;100.00;52806.81;5093457;28;20202;-80
2022/12/11 08:21:06;;;;;;;24.80;8.77;;;;;;;-145.69;100.00;52792.94;5093672;28;20209;-79
2022/12/11 08:23:32;;;;;;;22.97;8.70;;;;;;;-145.69;100.00;52804.84;5093642;28;20493;-81
2022/12/11 08:25:59;;;;;;;29.47;10.57;;;;;;;-145.69;100.00;52785.03;5093575;28;20205;-80
2022/12/11 08:28:25;;;;;;;29.90;10.97;;;;;;;-145.69;100.00;52802.84;5093558;28;20236;-82
2022/12/11 08:30:52;;;;;;;23.90;9.83;;;;;;;-145.69;100.00;52858.31;5094039;28;20212;-83
2022/12/11 08:33:18;;;;;;;26.80;9.57;;;;;;;-145.69;100.00;52816.72;5096209;28;20226;-84
2022/12/11 08:35:46;;;;;;;20.90;8.53;;;;;;;-145.69;100.00;52769.19;5094728;28;20229;-83
2022/12/11 08:38:12;;;;;;;21.23;8.97;;;;;;;-145.69;100.00;52796.91;5096212;28;20194;-83
2022/12/11 08:40:39;;;;;;;27.13;9.30;;;;;;;-145.69;100.00;52798.91;5095314;28;20206;-83
2022/12/11 08:43:05;;;;;;;24.43;9.13;;;;;;;-145.69;100.00;52800.88;5094951;28;20208;-82
2022/12/11 08:45:32;;;;;;;18.97;8.23;;;;;;;-145.69;100.00;52777.09;5096492;28;20560;-83
2022/12/11 08:47:59;;;;;;;19.80;8.37;;;;;;;-145.69;100.00;52818.69;5096198;28;20209;-82
2022/12/11 08:50:25;;;;;;;21.33;8.63;;;;;;;-145.69;100.00;52800.88;5096310;28;20198;-82
2022/12/11 08:52:53;;;;;;;20.50;7.93;;;;;;;-145.69;100.00;52798.91;5094375;28;20218;-82
2022/12/11 08:55:20;;;;;;;20.23;7.37;;;;;;;-145.69;100.00;52816.72;5094880;28;20194;-82
2022/12/11 08:57:47;;;;;;;18.13;7.27;;;;;;;-145.69;100.00;52765.22;5094688;28;20285;-82
2022/12/11 09:00:15;;;;;;;20.60;7.20;;;;;;;-145.69;100.00;52808.78;5094967;28;20541;-82
2022/12/11 09:02:41;;;;;;;23.73;6.97;;;;;;;-145.69;100.00;52800.88;5093584;28;20198;-81
2022/12/11 09:05:08;;;;;;;21.37;7.27;;;;;;;-145.69;100.00;52804.84;5093773;28;20296;-81
2022/12/11 09:07:36;;;;;;;20.03;7.33;;;;;;;-145.69;100.00;52794.94;5093853;28;20288;-81
2022/12/11 09:10:04;;;;;;;19.30;7.17;;;;;;;-145.69;100.00;52769.19;5093261;28;20201;-82
2022/12/11 09:12:32;;;;;;;17.57;6.90;;;;;;;-145.69;100.00;52749.38;5095891;28;20209;-82
2022/12/11 09:14:59;;;;;;;17.97;6.70;;;;;;;-145.69;100.00;52794.94;5095444;28;20217;-82
2022/12/11 09:17:25;;;;;;;18.93;6.67;;;;;;;-145.69;100.00;52812.75;5094469;28;20202;-81
2022/12/11 09:19:52;;;;;;;18.43;7.20;;;;;;;-145.69;100.00;52785.03;5092537;28;20538;-80
2022/12/11 09:22:19;;;;;;;23.30;8.10;;;;;;;-145.69;100.00;52777.09;5095218;28;20190;-81
2022/12/11 09:24:46;;;;;;;22.63;7.00;;;;;;;-145.69;100.00;52796.91;5094699;28;20281;-79
2022/12/11 09:27:14;;;;;;;16.67;6.60;;;;;;;-145.69;100.00;52783.06;5075223;28;20685;-79
2022/12/11 09:29:40;;;;;;;17.60;6.67;;;;;;;-145.69;100.00;52773.16;5074807;28;20208;-82
2022/12/11 09:32:07;;;;;;;17.47;6.13;;;;;;;-145.69;100.00;52781.06;5085710;28;20205;-82
2022/12/11 09:34:33;;;;;;;20.87;7.13;;;;;;;-145.69;100.00;52777.09;5092374;28;20226;-81
2022/12/11 09:37:00;;;;;;;18.53;6.63;;;;;;;-145.69;100.00;52789.00;5093776;28;20676;-81
2022/12/11 09:39:26;;;;;;;17.83;6.33;;;;;;;-145.69;100.00;52769.19;5094541;28;20564;-82
2022/12/11 09:42:00;;;;;;;19.30;6.73;;;;;;;-145.69;100.00;52808.78;5095283;28;20217;-80
2022/12/11 09:44:39;;;;;;;18.87;6.33;;;;;;;-145.69;100.00;52781.06;5096599;28;20194;-81
2022/12/11 09:47:17;;;;;;;15.27;6.60;;;;;;;-145.69;100.00;52787.00;5098263;28;20282;-82
2022/12/11 09:49:46;;;;;;;15.60;6.63;;;;;;;-145.69;100.00;52790.97;5098585;28;20198;-82
2022/12/11 09:52:17;;;;;;;14.53;5.83;;;;;;;-145.69;100.00;52761.25;5098731;28;20668;-84
2022/12/11 09:54:49;;;;;;;23.47;8.70;;;;;;;-145.69;100.00;52775.13;5099640;28;20704;-83
2022/12/11 09:57:28;;;;;;;19.60;8.80;;;;;;;-145.69;100.00;52812.75;5096459;28;20300;-82
2022/12/11 10:00:10;;;;;;;18.60;8.93;;;;;;;-145.69;100.00;52771.16;5096057;28;20201;-82
2022/12/11 10:02:48;;;;;;;16.93;6.17;;;;;;;-145.69;100.00;52767.19;5096367;28;20202;-81
2022/12/11 10:05:22;;;;;;;17.17;6.90;;;;;;;-145.69;100.00;52781.06;5096253;28;20656;-82
2022/12/11 10:07:55;;;;;;;22.07;6.60;;;;;;;-145.69;100.00;52775.13;5095847;28;20194;-81
2022/12/11 10:10:31;;;;;;;12.43;5.63;;;;;;;-145.69;100.00;52761.25;5096542;28;20198;-82
2022/12/11 10:13:05;;;;;;;12.93;5.37;;;;;;;-145.69;100.00;52804.84;5095881;28;20198;-82
2022/12/11 10:15:39;;;;;;;14.07;5.43;;;;;;;-145.69;100.00;52783.06;5095952;28;20259;-81
2022/12/11 10:18:12;;;;;;;16.23;6.20;;;;;;;-145.69;100.00;52777.09;5095474;28;20193;-81
2022/12/11 10:20:41;;;;;;;13.17;5.23;;;;;;;-145.69;100.00;52733.53;5095846;28;20208;-79
2022/12/11 10:23:15;;;;;;;11.67;5.13;;;;;;;-145.69;100.00;52806.81;5095285;28;20225;-81
2022/12/11 10:25:45;;;;;;;16.40;5.33;;;;;;;-145.69;100.00;52785.03;5095897;28;20212;-80
2022/12/11 10:28:14;;;;;;;10.40;4.30;;;;;;;-145.69;100.00;52777.09;5095495;28;20198;-81
2022/12/11 10:30:48;;;;;;;12.90;5.13;;;;;;;-145.69;100.00;52785.03;5095426;28;20198;-80
2022/12/11 10:33:21;;;;;;;10.80;4.43;;;;;;;-145.69;100.00;52792.94;5095357;28;20202;-81
2022/12/11 10:35:51;;;;;;;14.17;4.90;;;;;;;-145.69;100.00;52737.50;5095217;28;20727;-81
2022/12/11 10:38:23;;;;;;;13.37;4.90;;;;;;;-145.69;100.00;52777.09;5095015;28;20260;-81
2022/12/11 10:40:52;;;;;;;14.53;5.07;;;;;;;-145.69;100.00;52773.16;5095588;28;20195;-83
2022/12/11 10:43:19;;;;;;;17.37;6.27;;;;;;;-145.69;100.00;52781.06;5095234;28;20201;-83
2022/12/11 10:45:54;;;;;;;17.03;6.13;;;;;;;-145.69;100.00;52792.94;5095329;28;20800;-82
2022/12/11 10:48:22;;;;;;;14.43;5.53;;;;;;;-145.69;100.00;52769.19;5094639;28;20193;-81
2022/12/11 10:50:57;;;;;;;13.00;5.23;;;;;;;-145.69;100.00;52785.03;5093615;28;20205;-82
2022/12/11 10:53:24;;;;;;;12.70;5.17;;;;;;;-145.69;100.00;52743.44;5094703;28;20218;-81
2022/12/11 10:55:51;;;;;;;10.57;4.90;;;;;;;-145.69;100.00;52781.06;5094323;28;20232;-82
2022/12/11 10:58:20;;;;;;;9.00;4.60;;;;;;;-145.69;100.00;52779.09;5094568;28;20687;-82
2022/12/11 11:00:58;;;;;;;9.80;4.20;;;;;;;-145.69;100.00;52808.78;5094875;28;20198;-81
2022/12/11 11:03:28;;;;;;;12.13;4.83;;;;;;;-145.69;100.00;52761.25;5094998;28;20201;-81
2022/12/11 11:06:02;;;;;;;14.63;5.10;;;;;;;-145.69;100.00;52808.78;5094887;28;20205;-80
2022/12/11 11:08:38;;;;;;;12.03;5.07;;;;;;;-145.69;100.00;52741.47;5094026;28;20202;-80
2022/12/11 11:11:07;;;;;;;9.30;4.27;;;;;;;-145.69;100.00;52717.69;5094588;28;20194;-82
2022/12/11 11:13:35;;;;;;;16.97;4.73;;;;;;;-145.69;100.00;52743.44;5094471;28;20265;-82